sensor_id;sensor_type;location;lat;lon;timestamp;pressure;altitude;pressure_sealevel;temperature;humidity
5679;BME280;2862;52.560;13.566;2023-08-21T00:01:36;101341.81;;;22.21;93.48
5679;BME280;2862;52.560;13.566;2023-08-21T00:11:40;101327.88;;;22.31;93.09
5679;BME280;2862;52.560;13.566;2023-08-21T00:21:44;101318.50;;;22.18;93.45
5679;BME280;2862;52.560;13.566;2023-08-21T00:31:47;101329.75;;;22.00;95.45
5679;BME280;2862;52.560;13.566;2023-08-21T00:41:52;101319.13;;;22.06;94.86
5679;BME280;2862;52.560;13.566;2023-08-21T00:51:55;101327.69;;;22.03;96.02
5679;BME280;2862;52.560;13.566;2023-08-21T01:02:00;101323.91;;;21.89;97.22
5679;BME280;2862;52.560;13.566;2023-08-21T01:12:11;101329.75;;;22.00;96.23
5679;BME280;2862;52.560;13.566;2023-08-21T01:22:16;101327.22;;;21.99;96.04
5679;BME280;2862;52.560;13.566;2023-08-21T01:32:25;101329.94;;;21.99;96.90
5679;BME280;2862;52.560;13.566;2023-08-21T01:42:30;101316.97;;;22.01;96.74
5679;BME280;2862;52.560;13.566;2023-08-21T01:52:35;101310.69;;;22.00;96.79
5679;BME280;2862;52.560;13.566;2023-08-21T02:02:39;101279.78;;;21.93;97.14
5679;BME280;2862;52.560;13.566;2023-08-21T02:12:44;101292.75;;;22.06;95.43
5679;BME280;2862;52.560;13.566;2023-08-21T02:22:47;101289.13;;;22.14;94.66
5679;BME280;2862;52.560;13.566;2023-08-21T02:32:51;101290.53;;;22.10;94.63
5679;BME280;2862;52.560;13.566;2023-08-21T02:42:55;101289.75;;;22.16;92.08
5679;BME280;2862;52.560;13.566;2023-08-21T02:52:59;101283.63;;;22.29;91.43
5679;BME280;2862;52.560;13.566;2023-08-21T03:03:02;101294.38;;;22.15;92.26
5679;BME280;2862;52.560;13.566;2023-08-21T03:13:07;101301.59;;;22.23;92.39
5679;BME280;2862;52.560;13.566;2023-08-21T03:23:10;101285.44;;;22.21;91.01
5679;BME280;2862;52.560;13.566;2023-08-21T03:33:15;101274.63;;;22.13;91.16
5679;BME280;2862;52.560;13.566;2023-08-21T03:43:18;101278.56;;;22.25;91.07
5679;BME280;2862;52.560;13.566;2023-08-21T03:53:23;101287.59;;;22.26;90.79
5679;BME280;2862;52.560;13.566;2023-08-21T04:03:26;101293.47;;;22.44;89.20
5679;BME280;2862;52.560;13.566;2023-08-21T04:13:30;101302.75;;;22.50;89.23
5679;BME280;2862;52.560;13.566;2023-08-21T04:23:34;101308.00;;;22.51;89.22
5679;BME280;2862;52.560;13.566;2023-08-21T04:33:38;101310.72;;;22.66;88.63
5679;BME280;2862;52.560;13.566;2023-08-21T04:53:46;101313.41;;;23.24;84.65
5679;BME280;2862;52.560;13.566;2023-08-21T05:03:53;101318.41;;;25.13;74.17
5679;BME280;2862;52.560;13.566;2023-08-21T05:13:59;101321.00;;;32.48;48.26
5679;BME280;2862;52.560;13.566;2023-08-21T05:24:03;101336.38;;;35.10;40.73
5679;BME280;2862;52.560;13.566;2023-08-21T05:34:10;101324.69;;;35.28;38.89
5679;BME280;2862;52.560;13.566;2023-08-21T05:44:13;101329.84;;;32.94;43.52
5679;BME280;2862;52.560;13.566;2023-08-21T05:54:18;101344.25;;;29.75;51.60
5679;BME280;2862;52.560;13.566;2023-08-21T06:04:21;101339.97;;;30.83;48.27
5679;BME280;2862;52.560;13.566;2023-08-21T06:14:31;101348.22;;;28.36;56.93
5679;BME280;2862;52.560;13.566;2023-08-21T06:24:35;101338.59;;;30.05;51.79
5679;BME280;2862;52.560;13.566;2023-08-21T06:34:44;101342.16;;;28.94;54.54
5679;BME280;2862;52.560;13.566;2023-08-21T06:44:47;101358.28;;;29.74;53.18
5679;BME280;2862;52.560;13.566;2023-08-21T06:54:51;101369.53;;;29.96;51.99
5679;BME280;2862;52.560;13.566;2023-08-21T07:04:54;101367.00;;;32.11;45.78
5679;BME280;2862;52.560;13.566;2023-08-21T07:14:58;101351.47;;;37.68;33.70
5679;BME280;2862;52.560;13.566;2023-08-21T07:25:01;101354.03;;;40.92;28.45
5679;BME280;2862;52.560;13.566;2023-08-21T07:35:07;101358.56;;;37.21;33.03
5679;BME280;2862;52.560;13.566;2023-08-21T07:45:10;101376.28;;;37.01;33.32
5679;BME280;2862;52.560;13.566;2023-08-21T07:55:14;101384.88;;;34.62;36.39
5679;BME280;2862;52.560;13.566;2023-08-21T08:05:17;101380.06;;;33.03;39.46
5679;BME280;2862;52.560;13.566;2023-08-21T08:15:22;101381.25;;;33.39;37.99
5679;BME280;2862;52.560;13.566;2023-08-21T08:25:25;101381.81;;;32.21;39.71
5679;BME280;2862;52.560;13.566;2023-08-21T08:35:29;101379.88;;;31.83;39.43
5679;BME280;2862;52.560;13.566;2023-08-21T08:45:32;101399.22;;;30.64;42.75
5679;BME280;2862;52.560;13.566;2023-08-21T08:55:36;101399.47;;;31.65;41.42
5679;BME280;2862;52.560;13.566;2023-08-21T09:05:40;101394.09;;;31.13;37.98
5679;BME280;2862;52.560;13.566;2023-08-21T09:15:46;101390.41;;;31.36;37.82
5679;BME280;2862;52.560;13.566;2023-08-21T09:25:49;101378.94;;;31.61;33.20
5679;BME280;2862;52.560;13.566;2023-08-21T09:35:54;101373.09;;;31.91;28.97
5679;BME280;2862;52.560;13.566;2023-08-21T09:45:57;101378.41;;;31.30;31.39
5679;BME280;2862;52.560;13.566;2023-08-21T09:56:01;101371.81;;;31.31;32.81
5679;BME280;2862;52.560;13.566;2023-08-21T10:06:09;101356.69;;;31.22;33.11
5679;BME280;2862;52.560;13.566;2023-08-21T10:16:15;101365.81;;;30.65;34.09
5679;BME280;2862;52.560;13.566;2023-08-21T10:26:20;101378.72;;;30.48;33.44
5679;BME280;2862;52.560;13.566;2023-08-21T10:37:04;101380.66;;;30.48;33.03
5679;BME280;2862;52.560;13.566;2023-08-21T10:47:16;101375.63;;;30.09;34.43
5679;BME280;2862;52.560;13.566;2023-08-21T10:57:23;101379.84;;;29.65;35.44
5679;BME280;2862;52.560;13.566;2023-08-21T11:07:27;101385.72;;;29.69;35.77
5679;BME280;2862;52.560;13.566;2023-08-21T11:17:31;101381.28;;;29.68;36.23
5679;BME280;2862;52.560;13.566;2023-08-21T11:27:34;101383.50;;;29.47;37.17
5679;BME280;2862;52.560;13.566;2023-08-21T11:37:43;101379.38;;;29.80;35.62
5679;BME280;2862;52.560;13.566;2023-08-21T11:47:47;101383.66;;;29.99;36.65
5679;BME280;2862;52.560;13.566;2023-08-21T11:57:52;101375.53;;;29.81;37.47
5679;BME280;2862;52.560;13.566;2023-08-21T12:07:56;101374.09;;;29.55;37.74
5679;BME280;2862;52.560;13.566;2023-08-21T12:18:01;101379.16;;;29.40;37.61
5679;BME280;2862;52.560;13.566;2023-08-21T12:28:06;101376.31;;;29.46;37.44
5679;BME280;2862;52.560;13.566;2023-08-21T12:38:11;101368.72;;;29.83;36.91
5679;BME280;2862;52.560;13.566;2023-08-21T12:48:15;101367.00;;;29.59;36.35
5679;BME280;2862;52.560;13.566;2023-08-21T12:58:19;101364.38;;;29.64;37.08
5679;BME280;2862;52.560;13.566;2023-08-21T13:08:22;101364.03;;;29.84;37.30
5679;BME280;2862;52.560;13.566;2023-08-21T13:18:27;101362.56;;;29.70;36.42
5679;BME280;2862;52.560;13.566;2023-08-21T13:28:30;101368.28;;;29.45;36.05
5679;BME280;2862;52.560;13.566;2023-08-21T13:38:35;101355.81;;;29.00;36.33
5679;BME280;2862;52.560;13.566;2023-08-21T13:48:38;101353.13;;;29.24;35.76
5679;BME280;2862;52.560;13.566;2023-08-21T13:58:42;101336.38;;;29.14;35.99
5679;BME280;2862;52.560;13.566;2023-08-21T14:08:45;101338.03;;;29.15;36.43
5679;BME280;2862;52.560;13.566;2023-08-21T14:18:49;101328.09;;;29.02;36.50
5679;BME280;2862;52.560;13.566;2023-08-21T14:28:52;101334.13;;;28.92;37.14
5679;BME280;2862;52.560;13.566;2023-08-21T14:38:56;101322.47;;;28.90;37.59
5679;BME280;2862;52.560;13.566;2023-08-21T14:48:59;101325.97;;;28.86;38.69
5679;BME280;2862;52.560;13.566;2023-08-21T14:59:03;101317.06;;;28.83;36.26
5679;BME280;2862;52.560;13.566;2023-08-21T15:09:06;101300.94;;;28.87;35.93
5679;BME280;2862;52.560;13.566;2023-08-21T15:19:10;101315.03;;;28.49;35.94
5679;BME280;2862;52.560;13.566;2023-08-21T15:29:13;101299.97;;;28.51;35.63
5679;BME280;2862;52.560;13.566;2023-08-21T15:39:18;101302.53;;;28.65;36.32
5679;BME280;2862;52.560;13.566;2023-08-21T15:49:21;101288.00;;;28.88;35.10
5679;BME280;2862;52.560;13.566;2023-08-21T15:59:25;101276.38;;;29.16;34.94
5679;BME280;2862;52.560;13.566;2023-08-21T16:09:28;101278.44;;;28.90;35.97
5679;BME280;2862;52.560;13.566;2023-08-21T16:19:32;101275.13;;;28.58;36.29
5679;BME280;2862;52.560;13.566;2023-08-21T16:29:35;101277.66;;;28.41;36.63
5679;BME280;2862;52.560;13.566;2023-08-21T16:39:39;101281.94;;;28.19;37.90
5679;BME280;2862;52.560;13.566;2023-08-21T16:49:42;101272.25;;;27.98;37.50
5679;BME280;2862;52.560;13.566;2023-08-21T16:59:47;101278.00;;;27.78;38.28
5679;BME280;2862;52.560;13.566;2023-08-21T17:09:50;101264.28;;;27.53;38.68
5679;BME280;2862;52.560;13.566;2023-08-21T17:19:54;101266.19;;;27.27;39.19
5679;BME280;2862;52.560;13.566;2023-08-21T17:29:58;101262.66;;;26.95;39.94
5679;BME280;2862;52.560;13.566;2023-08-21T17:40:02;101247.25;;;26.63;41.19
5679;BME280;2862;52.560;13.566;2023-08-21T17:50:08;101252.41;;;26.39;42.11
5679;BME280;2862;52.560;13.566;2023-08-21T18:00:13;101265.44;;;26.06;42.70
5679;BME280;2862;52.560;13.566;2023-08-21T18:10:17;101269.09;;;25.80;42.81
5679;BME280;2862;52.560;13.566;2023-08-21T18:20:53;101280.28;;;25.65;44.46
5679;BME280;2862;52.560;13.566;2023-08-21T18:30:57;101278.22;;;25.40;43.74
5679;BME280;2862;52.560;13.566;2023-08-21T18:41:02;101290.22;;;25.20;43.81
5679;BME280;2862;52.560;13.566;2023-08-21T18:51:04;101285.31;;;25.02;44.86
5679;BME280;2862;52.560;13.566;2023-08-21T19:01:08;101289.31;;;24.93;44.98
5679;BME280;2862;52.560;13.566;2023-08-21T19:11:12;101302.13;;;24.72;45.35
5679;BME280;2862;52.560;13.566;2023-08-21T19:21:19;101301.19;;;24.52;44.46
5679;BME280;2862;52.560;13.566;2023-08-21T19:31:22;101293.50;;;24.21;45.69
5679;BME280;2862;52.560;13.566;2023-08-21T19:41:26;101299.56;;;24.16;46.16
5679;BME280;2862;52.560;13.566;2023-08-21T19:51:29;101311.03;;;23.98;46.61
5679;BME280;2862;52.560;13.566;2023-08-21T20:01:33;101319.09;;;23.78;49.10
5679;BME280;2862;52.560;13.566;2023-08-21T20:11:37;101319.53;;;23.54;50.01
5679;BME280;2862;52.560;13.566;2023-08-21T20:21:41;101322.44;;;23.24;50.21
5679;BME280;2862;52.560;13.566;2023-08-21T20:31:44;101303.97;;;23.05;50.78
5679;BME280;2862;52.560;13.566;2023-08-21T20:41:49;101295.28;;;23.16;50.37
5679;BME280;2862;52.560;13.566;2023-08-21T20:51:51;101309.69;;;23.31;50.28
5679;BME280;2862;52.560;13.566;2023-08-21T21:01:56;101303.28;;;22.96;50.52
5679;BME280;2862;52.560;13.566;2023-08-21T21:11:59;101297.28;;;22.86;51.78
5679;BME280;2862;52.560;13.566;2023-08-21T21:22:03;101308.13;;;22.43;53.40
5679;BME280;2862;52.560;13.566;2023-08-21T21:32:06;101318.41;;;22.12;54.44
5679;BME280;2862;52.560;13.566;2023-08-21T21:42:11;101327.22;;;21.99;55.35
5679;BME280;2862;52.560;13.566;2023-08-21T21:52:14;101317.16;;;21.70;56.77
5679;BME280;2862;52.560;13.566;2023-08-21T22:02:17;101297.69;;;21.43;58.76
5679;BME280;2862;52.560;13.566;2023-08-21T22:12:20;101310.88;;;21.32;60.67
5679;BME280;2862;52.560;13.566;2023-08-21T22:22:25;101324.78;;;21.14;61.80
5679;BME280;2862;52.560;13.566;2023-08-21T22:32:28;101319.41;;;20.83;64.45
5679;BME280;2862;52.560;13.566;2023-08-21T22:42:32;101303.66;;;20.70;65.84
5679;BME280;2862;52.560;13.566;2023-08-21T22:52:36;101317.91;;;20.41;68.23
5679;BME280;2862;52.560;13.566;2023-08-21T23:02:40;101315.56;;;20.30;69.66
5679;BME280;2862;52.560;13.566;2023-08-21T23:12:44;101305.41;;;20.32;70.47
5679;BME280;2862;52.560;13.566;2023-08-21T23:22:48;101304.88;;;20.36;71.60
5679;BME280;2862;52.560;13.566;2023-08-21T23:32:50;101303.88;;;20.29;72.54
5679;BME280;2862;52.560;13.566;2023-08-21T23:42:55;101286.50;;;20.07;74.18
5679;BME280;2862;52.560;13.566;2023-08-21T23:52:59;101295.56;;;20.31;73.83
